sensor_id;sensor_type;location;lat;lon;timestamp;P1;durP1;ratioP1;P2;durP2;ratioP2
75429;SDS011;64127;51.488;5.462;2024-03-02T00:02:10;2.50;;;1.57;;
75429;SDS011;64127;51.488;5.462;2024-03-02T00:04:44;2.30;;;1.33;;
75429;SDS011;64127;51.488;5.462;2024-03-02T00:07:16;2.17;;;1.43;;
75429;SDS011;64127;51.488;5.462;2024-03-02T00:09:52;2.43;;;1.30;;
75429;SDS011;64127;51.488;5.462;2024-03-02T00:12:25;2.37;;;1.40;;
75429;SDS011;64127;51.488;5.462;2024-03-02T00:14:58;1.40;;;0.90;;
75429;SDS011;64127;51.488;5.462;2024-03-02T00:17:33;1.63;;;1.00;;
75429;SDS011;64127;51.488;5.462;2024-03-02T00:20:06;0.80;;;0.80;;
75429;SDS011;64127;51.488;5.462;2024-03-02T00:22:41;0.83;;;0.43;;
75429;SDS011;64127;51.488;5.462;2024-03-02T00:25:13;1.20;;;0.70;;
75429;SDS011;64127;51.488;5.462;2024-03-02T00:27:47;0.43;;;0.40;;
75429;SDS011;64127;51.488;5.462;2024-03-02T00:33:36;0.43;;;0.43;;
75429;SDS011;64127;51.488;5.462;2024-03-02T00:36:24;0.93;;;0.50;;
75429;SDS011;64127;51.488;5.462;2024-03-02T00:38:58;0.40;;;0.40;;
75429;SDS011;64127;51.488;5.462;2024-03-02T00:41:31;0.33;;;0.33;;
75429;SDS011;64127;51.488;5.462;2024-03-02T00:44:05;0.50;;;0.50;;
75429;SDS011;64127;51.488;5.462;2024-03-02T00:46:40;0.57;;;0.57;;
75429;SDS011;64127;51.488;5.462;2024-03-02T00:51:54;0.70;;;0.50;;
75429;SDS011;64127;51.488;5.462;2024-03-02T00:54:26;0.60;;;0.60;;
75429;SDS011;64127;51.488;5.462;2024-03-02T00:57:00;0.50;;;0.50;;
75429;SDS011;64127;51.488;5.462;2024-03-02T00:59:32;0.60;;;0.60;;
75429;SDS011;64127;51.488;5.462;2024-03-02T01:02:05;1.17;;;1.00;;
75429;SDS011;64127;51.488;5.462;2024-03-02T01:04:37;2.10;;;1.27;;
75429;SDS011;64127;51.488;5.462;2024-03-02T01:07:09;1.20;;;1.10;;
75429;SDS011;64127;51.488;5.462;2024-03-02T01:09:41;2.00;;;1.33;;
75429;SDS011;64127;51.488;5.462;2024-03-02T01:12:13;2.00;;;1.20;;
75429;SDS011;64127;51.488;5.462;2024-03-02T01:14:45;1.87;;;1.00;;
75429;SDS011;64127;51.488;5.462;2024-03-02T01:17:17;0.90;;;0.70;;
75429;SDS011;64127;51.488;5.462;2024-03-02T01:19:49;0.80;;;0.80;;
75429;SDS011;64127;51.488;5.462;2024-03-02T01:22:22;1.03;;;0.70;;
75429;SDS011;64127;51.488;5.462;2024-03-02T01:24:56;0.73;;;0.60;;
75429;SDS011;64127;51.488;5.462;2024-03-02T01:27:29;0.60;;;0.60;;
75429;SDS011;64127;51.488;5.462;2024-03-02T01:30:01;0.87;;;0.50;;
75429;SDS011;64127;51.488;5.462;2024-03-02T01:32:33;0.50;;;0.50;;
75429;SDS011;64127;51.488;5.462;2024-03-02T01:35:05;1.80;;;0.60;;
75429;SDS011;64127;51.488;5.462;2024-03-02T01:37:39;0.43;;;0.43;;
75429;SDS011;64127;51.488;5.462;2024-03-02T01:40:11;0.70;;;0.63;;
75429;SDS011;64127;51.488;5.462;2024-03-02T01:42:43;0.70;;;0.63;;
75429;SDS011;64127;51.488;5.462;2024-03-02T01:45:16;0.70;;;0.70;;
75429;SDS011;64127;51.488;5.462;2024-03-02T01:47:48;0.80;;;0.80;;
75429;SDS011;64127;51.488;5.462;2024-03-02T01:50:27;0.70;;;0.70;;
75429;SDS011;64127;51.488;5.462;2024-03-02T01:53:01;0.93;;;0.70;;
75429;SDS011;64127;51.488;5.462;2024-03-02T01:55:34;1.00;;;0.80;;
75429;SDS011;64127;51.488;5.462;2024-03-02T01:58:06;1.63;;;0.80;;
75429;SDS011;64127;51.488;5.462;2024-03-02T02:00:38;0.80;;;0.70;;
75429;SDS011;64127;51.488;5.462;2024-03-02T02:03:11;1.73;;;1.00;;
75429;SDS011;64127;51.488;5.462;2024-03-02T02:05:43;0.80;;;0.80;;
75429;SDS011;64127;51.488;5.462;2024-03-02T02:08:15;1.30;;;1.00;;
75429;SDS011;64127;51.488;5.462;2024-03-02T02:10:48;1.90;;;1.13;;
75429;SDS011;64127;51.488;5.462;2024-03-02T02:13:20;1.50;;;1.10;;
75429;SDS011;64127;51.488;5.462;2024-03-02T02:15:52;2.50;;;1.00;;
75429;SDS011;64127;51.488;5.462;2024-03-02T02:18:25;1.20;;;1.03;;
75429;SDS011;64127;51.488;5.462;2024-03-02T02:20:57;2.17;;;1.10;;
75429;SDS011;64127;51.488;5.462;2024-03-02T02:23:29;1.60;;;1.20;;
75429;SDS011;64127;51.488;5.462;2024-03-02T02:26:01;3.50;;;1.47;;
75429;SDS011;64127;51.488;5.462;2024-03-02T02:28:35;2.80;;;1.20;;
75429;SDS011;64127;51.488;5.462;2024-03-02T02:31:07;1.47;;;1.10;;
75429;SDS011;64127;51.488;5.462;2024-03-02T02:33:39;1.23;;;0.87;;
75429;SDS011;64127;51.488;5.462;2024-03-02T02:36:12;1.70;;;0.80;;
75429;SDS011;64127;51.488;5.462;2024-03-02T02:38:44;1.43;;;0.70;;
75429;SDS011;64127;51.488;5.462;2024-03-02T02:41:20;1.23;;;0.90;;
75429;SDS011;64127;51.488;5.462;2024-03-02T02:43:52;2.53;;;0.90;;
75429;SDS011;64127;51.488;5.462;2024-03-02T02:46:24;1.00;;;0.90;;
75429;SDS011;64127;51.488;5.462;2024-03-02T02:48:56;1.33;;;0.90;;
75429;SDS011;64127;51.488;5.462;2024-03-02T02:51:29;2.50;;;1.20;;
75429;SDS011;64127;51.488;5.462;2024-03-02T02:54:01;2.47;;;1.30;;
75429;SDS011;64127;51.488;5.462;2024-03-02T02:56:33;1.70;;;1.27;;
75429;SDS011;64127;51.488;5.462;2024-03-02T02:59:05;1.30;;;1.00;;
75429;SDS011;64127;51.488;5.462;2024-03-02T03:01:37;1.20;;;1.00;;
75429;SDS011;64127;51.488;5.462;2024-03-02T03:04:09;1.73;;;1.00;;
75429;SDS011;64127;51.488;5.462;2024-03-02T03:06:41;2.10;;;1.20;;
75429;SDS011;64127;51.488;5.462;2024-03-02T03:09:13;2.63;;;1.17;;
75429;SDS011;64127;51.488;5.462;2024-03-02T03:11:45;1.60;;;1.20;;
75429;SDS011;64127;51.488;5.462;2024-03-02T03:14:17;0.90;;;0.80;;
75429;SDS011;64127;51.488;5.462;2024-03-02T03:16:49;1.10;;;0.90;;
75429;SDS011;64127;51.488;5.462;2024-03-02T03:19:21;1.40;;;0.93;;
75429;SDS011;64127;51.488;5.462;2024-03-02T03:21:53;1.27;;;0.73;;
75429;SDS011;64127;51.488;5.462;2024-03-02T03:24:26;1.10;;;0.93;;
75429;SDS011;64127;51.488;5.462;2024-03-02T03:26:58;1.23;;;0.90;;
75429;SDS011;64127;51.488;5.462;2024-03-02T03:29:30;1.33;;;1.00;;
75429;SDS011;64127;51.488;5.462;2024-03-02T03:32:02;1.37;;;0.70;;
75429;SDS011;64127;51.488;5.462;2024-03-02T03:34:34;1.67;;;1.00;;
75429;SDS011;64127;51.488;5.462;2024-03-02T03:37:07;1.13;;;0.80;;
75429;SDS011;64127;51.488;5.462;2024-03-02T03:39:39;0.77;;;0.63;;
75429;SDS011;64127;51.488;5.462;2024-03-02T03:42:11;1.53;;;0.80;;
75429;SDS011;64127;51.488;5.462;2024-03-02T03:44:43;1.63;;;0.80;;
75429;SDS011;64127;51.488;5.462;2024-03-02T03:47:15;0.70;;;0.70;;
75429;SDS011;64127;51.488;5.462;2024-03-02T03:49:47;0.70;;;0.70;;
75429;SDS011;64127;51.488;5.462;2024-03-02T03:52:19;0.73;;;0.73;;
75429;SDS011;64127;51.488;5.462;2024-03-02T03:54:52;1.90;;;0.70;;
75429;SDS011;64127;51.488;5.462;2024-03-02T03:57:24;0.47;;;0.47;;
75429;SDS011;64127;51.488;5.462;2024-03-02T03:59:57;0.87;;;0.67;;
75429;SDS011;64127;51.488;5.462;2024-03-02T04:02:29;0.80;;;0.60;;
75429;SDS011;64127;51.488;5.462;2024-03-02T04:05:01;1.27;;;0.50;;
75429;SDS011;64127;51.488;5.462;2024-03-02T04:07:36;0.93;;;0.60;;
75429;SDS011;64127;51.488;5.462;2024-03-02T04:10:12;0.67;;;0.40;;
75429;SDS011;64127;51.488;5.462;2024-03-02T04:12:44;0.60;;;0.60;;
75429;SDS011;64127;51.488;5.462;2024-03-02T04:15:16;0.93;;;0.50;;
75429;SDS011;64127;51.488;5.462;2024-03-02T04:17:50;0.77;;;0.70;;
75429;SDS011;64127;51.488;5.462;2024-03-02T04:20:22;0.93;;;0.63;;
75429;SDS011;64127;51.488;5.462;2024-03-02T04:22:54;0.60;;;0.60;;
75429;SDS011;64127;51.488;5.462;2024-03-02T04:25:26;1.17;;;0.50;;
75429;SDS011;64127;51.488;5.462;2024-03-02T04:27:58;0.90;;;0.77;;
75429;SDS011;64127;51.488;5.462;2024-03-02T04:30:30;0.77;;;0.60;;
75429;SDS011;64127;51.488;5.462;2024-03-02T04:33:02;1.07;;;0.70;;
75429;SDS011;64127;51.488;5.462;2024-03-02T04:35:38;0.50;;;0.50;;
75429;SDS011;64127;51.488;5.462;2024-03-02T04:38:10;0.63;;;0.40;;
75429;SDS011;64127;51.488;5.462;2024-03-02T04:40:42;1.00;;;0.50;;
75429;SDS011;64127;51.488;5.462;2024-03-02T04:43:14;0.70;;;0.50;;
75429;SDS011;64127;51.488;5.462;2024-03-02T04:45:47;1.00;;;0.60;;
75429;SDS011;64127;51.488;5.462;2024-03-02T04:48:19;0.83;;;0.60;;
75429;SDS011;64127;51.488;5.462;2024-03-02T04:50:53;0.70;;;0.70;;
75429;SDS011;64127;51.488;5.462;2024-03-02T04:53:25;1.07;;;0.70;;
75429;SDS011;64127;51.488;5.462;2024-03-02T04:55:57;1.07;;;0.57;;
75429;SDS011;64127;51.488;5.462;2024-03-02T04:58:49;1.17;;;0.50;;
75429;SDS011;64127;51.488;5.462;2024-03-02T05:01:21;0.50;;;0.50;;
75429;SDS011;64127;51.488;5.462;2024-03-02T05:03:53;1.27;;;0.70;;
75429;SDS011;64127;51.488;5.462;2024-03-02T05:06:26;1.80;;;0.80;;
75429;SDS011;64127;51.488;5.462;2024-03-02T05:08:58;0.70;;;0.70;;
75429;SDS011;64127;51.488;5.462;2024-03-02T05:11:30;0.63;;;0.57;;
75429;SDS011;64127;51.488;5.462;2024-03-02T05:14:08;0.80;;;0.50;;
75429;SDS011;64127;51.488;5.462;2024-03-02T05:16:40;0.60;;;0.60;;
75429;SDS011;64127;51.488;5.462;2024-03-02T05:19:15;0.70;;;0.50;;
75429;SDS011;64127;51.488;5.462;2024-03-02T05:21:47;0.77;;;0.57;;
75429;SDS011;64127;51.488;5.462;2024-03-02T05:24:20;2.13;;;1.03;;
75429;SDS011;64127;51.488;5.462;2024-03-02T05:26:52;1.17;;;0.80;;
75429;SDS011;64127;51.488;5.462;2024-03-02T05:29:24;1.30;;;0.80;;
75429;SDS011;64127;51.488;5.462;2024-03-02T05:31:56;1.90;;;0.90;;
75429;SDS011;64127;51.488;5.462;2024-03-02T05:34:29;2.33;;;0.93;;
75429;SDS011;64127;51.488;5.462;2024-03-02T05:37:02;1.20;;;1.10;;
75429;SDS011;64127;51.488;5.462;2024-03-02T05:39:34;0.60;;;0.60;;
75429;SDS011;64127;51.488;5.462;2024-03-02T05:42:06;1.83;;;0.90;;
75429;SDS011;64127;51.488;5.462;2024-03-02T05:44:38;0.73;;;0.70;;
75429;SDS011;64127;51.488;5.462;2024-03-02T05:47:10;0.90;;;0.80;;
75429;SDS011;64127;51.488;5.462;2024-03-02T05:49:42;1.10;;;0.80;;
75429;SDS011;64127;51.488;5.462;2024-03-02T05:52:14;1.27;;;0.80;;
75429;SDS011;64127;51.488;5.462;2024-03-02T05:54:46;0.77;;;0.73;;
75429;SDS011;64127;51.488;5.462;2024-03-02T05:57:20;1.23;;;0.93;;
75429;SDS011;64127;51.488;5.462;2024-03-02T06:00:10;0.97;;;0.70;;
75429;SDS011;64127;51.488;5.462;2024-03-02T06:02:43;0.70;;;0.70;;
75429;SDS011;64127;51.488;5.462;2024-03-02T06:05:15;0.70;;;0.70;;
75429;SDS011;64127;51.488;5.462;2024-03-02T06:07:49;0.97;;;0.70;;
75429;SDS011;64127;51.488;5.462;2024-03-02T06:10:21;0.90;;;0.70;;
75429;SDS011;64127;51.488;5.462;2024-03-02T06:12:53;1.10;;;1.00;;
75429;SDS011;64127;51.488;5.462;2024-03-02T06:15:25;2.70;;;1.17;;
75429;SDS011;64127;51.488;5.462;2024-03-02T06:17:57;1.90;;;1.40;;
75429;SDS011;64127;51.488;5.462;2024-03-02T06:20:29;2.03;;;1.37;;
75429;SDS011;64127;51.488;5.462;2024-03-02T06:23:06;1.47;;;1.10;;
75429;SDS011;64127;51.488;5.462;2024-03-02T06:25:38;1.53;;;1.00;;
75429;SDS011;64127;51.488;5.462;2024-03-02T06:28:10;2.47;;;1.00;;
75429;SDS011;64127;51.488;5.462;2024-03-02T06:30:42;1.40;;;0.93;;
75429;SDS011;64127;51.488;5.462;2024-03-02T06:33:15;1.40;;;1.20;;
75429;SDS011;64127;51.488;5.462;2024-03-02T06:35:47;1.43;;;0.90;;
75429;SDS011;64127;51.488;5.462;2024-03-02T06:38:20;2.40;;;1.10;;
75429;SDS011;64127;51.488;5.462;2024-03-02T06:40:52;2.40;;;1.03;;
75429;SDS011;64127;51.488;5.462;2024-03-02T06:43:24;1.30;;;0.83;;
75429;SDS011;64127;51.488;5.462;2024-03-02T06:45:56;0.80;;;0.80;;
75429;SDS011;64127;51.488;5.462;2024-03-02T06:48:29;1.27;;;0.87;;
75429;SDS011;64127;51.488;5.462;2024-03-02T06:51:01;1.80;;;0.80;;
75429;SDS011;64127;51.488;5.462;2024-03-02T06:53:34;1.43;;;0.90;;
75429;SDS011;64127;51.488;5.462;2024-03-02T06:56:06;1.50;;;0.93;;
75429;SDS011;64127;51.488;5.462;2024-03-02T06:58:39;1.10;;;1.00;;
75429;SDS011;64127;51.488;5.462;2024-03-02T07:01:11;1.17;;;0.83;;
75429;SDS011;64127;51.488;5.462;2024-03-02T07:03:44;2.03;;;1.10;;
75429;SDS011;64127;51.488;5.462;2024-03-02T07:06:16;2.87;;;1.07;;
75429;SDS011;64127;51.488;5.462;2024-03-02T07:08:48;2.20;;;1.07;;
75429;SDS011;64127;51.488;5.462;2024-03-02T07:11:20;3.20;;;1.10;;
75429;SDS011;64127;51.488;5.462;2024-03-02T07:13:52;1.67;;;1.07;;
75429;SDS011;64127;51.488;5.462;2024-03-02T07:16:24;2.47;;;1.70;;
75429;SDS011;64127;51.488;5.462;2024-03-02T07:19:01;2.23;;;1.10;;
75429;SDS011;64127;51.488;5.462;2024-03-02T07:21:33;2.20;;;1.10;;
75429;SDS011;64127;51.488;5.462;2024-03-02T07:24:05;3.03;;;1.17;;
75429;SDS011;64127;51.488;5.462;2024-03-02T07:26:41;1.53;;;1.13;;
75429;SDS011;64127;51.488;5.462;2024-03-02T07:29:16;1.63;;;1.00;;
75429;SDS011;64127;51.488;5.462;2024-03-02T07:31:48;2.87;;;1.10;;
75429;SDS011;64127;51.488;5.462;2024-03-02T07:34:20;3.57;;;1.10;;
75429;SDS011;64127;51.488;5.462;2024-03-02T07:36:52;2.43;;;1.20;;
75429;SDS011;64127;51.488;5.462;2024-03-02T07:39:25;2.10;;;0.80;;
75429;SDS011;64127;51.488;5.462;2024-03-02T07:41:58;1.03;;;0.90;;
75429;SDS011;64127;51.488;5.462;2024-03-02T07:44:31;2.30;;;1.17;;
75429;SDS011;64127;51.488;5.462;2024-03-02T07:47:03;2.70;;;1.10;;
75429;SDS011;64127;51.488;5.462;2024-03-02T07:49:35;2.60;;;1.40;;
75429;SDS011;64127;51.488;5.462;2024-03-02T07:52:07;2.00;;;1.20;;
75429;SDS011;64127;51.488;5.462;2024-03-02T07:54:39;2.00;;;1.20;;
75429;SDS011;64127;51.488;5.462;2024-03-02T07:57:12;2.73;;;1.30;;
75429;SDS011;64127;51.488;5.462;2024-03-02T07:59:44;3.20;;;1.47;;
75429;SDS011;64127;51.488;5.462;2024-03-02T08:02:16;1.93;;;1.23;;
75429;SDS011;64127;51.488;5.462;2024-03-02T08:04:49;2.43;;;1.30;;
75429;SDS011;64127;51.488;5.462;2024-03-02T08:07:21;2.83;;;1.23;;
75429;SDS011;64127;51.488;5.462;2024-03-02T08:09:54;2.60;;;1.33;;
75429;SDS011;64127;51.488;5.462;2024-03-02T08:12:26;1.90;;;1.20;;
75429;SDS011;64127;51.488;5.462;2024-03-02T08:14:58;1.23;;;0.97;;
75429;SDS011;64127;51.488;5.462;2024-03-02T08:17:30;2.53;;;1.20;;
75429;SDS011;64127;51.488;5.462;2024-03-02T08:20:05;2.23;;;1.20;;
75429;SDS011;64127;51.488;5.462;2024-03-02T08:22:39;1.80;;;1.17;;
75429;SDS011;64127;51.488;5.462;2024-03-02T08:25:12;2.33;;;1.20;;
75429;SDS011;64127;51.488;5.462;2024-03-02T08:27:44;1.93;;;1.10;;
75429;SDS011;64127;51.488;5.462;2024-03-02T08:30:16;2.63;;;1.33;;
75429;SDS011;64127;51.488;5.462;2024-03-02T08:32:49;2.03;;;1.40;;
75429;SDS011;64127;51.488;5.462;2024-03-02T08:35:21;1.50;;;1.10;;
75429;SDS011;64127;51.488;5.462;2024-03-02T08:37:54;3.43;;;1.13;;
75429;SDS011;64127;51.488;5.462;2024-03-02T08:40:26;2.77;;;1.30;;
75429;SDS011;64127;51.488;5.462;2024-03-02T08:42:58;2.57;;;1.30;;
75429;SDS011;64127;51.488;5.462;2024-03-02T08:45:31;3.30;;;1.23;;
75429;SDS011;64127;51.488;5.462;2024-03-02T08:48:03;2.00;;;1.00;;
75429;SDS011;64127;51.488;5.462;2024-03-02T08:50:36;3.47;;;1.30;;
75429;SDS011;64127;51.488;5.462;2024-03-02T08:53:08;3.13;;;1.37;;
75429;SDS011;64127;51.488;5.462;2024-03-02T08:55:40;2.57;;;1.10;;
75429;SDS011;64127;51.488;5.462;2024-03-02T08:58:12;2.07;;;1.10;;
75429;SDS011;64127;51.488;5.462;2024-03-02T09:00:44;2.27;;;1.07;;
75429;SDS011;64127;51.488;5.462;2024-03-02T09:03:18;2.87;;;1.40;;
75429;SDS011;64127;51.488;5.462;2024-03-02T09:05:51;2.47;;;1.47;;
75429;SDS011;64127;51.488;5.462;2024-03-02T09:08:23;2.97;;;1.30;;
75429;SDS011;64127;51.488;5.462;2024-03-02T09:10:56;3.80;;;1.60;;
75429;SDS011;64127;51.488;5.462;2024-03-02T09:13:29;1.97;;;1.10;;
75429;SDS011;64127;51.488;5.462;2024-03-02T09:16:01;3.03;;;1.20;;
75429;SDS011;64127;51.488;5.462;2024-03-02T09:18:34;3.00;;;1.17;;
75429;SDS011;64127;51.488;5.462;2024-03-02T09:21:06;3.57;;;1.30;;
75429;SDS011;64127;51.488;5.462;2024-03-02T09:23:38;2.23;;;1.23;;
75429;SDS011;64127;51.488;5.462;2024-03-02T09:26:11;3.00;;;1.40;;
75429;SDS011;64127;51.488;5.462;2024-03-02T09:28:43;2.80;;;1.23;;
75429;SDS011;64127;51.488;5.462;2024-03-02T09:31:15;3.03;;;1.30;;
75429;SDS011;64127;51.488;5.462;2024-03-02T09:33:47;3.00;;;1.23;;
75429;SDS011;64127;51.488;5.462;2024-03-02T09:36:21;2.37;;;1.20;;
75429;SDS011;64127;51.488;5.462;2024-03-02T09:38:54;2.20;;;1.37;;
75429;SDS011;64127;51.488;5.462;2024-03-02T09:41:26;3.97;;;1.43;;
75429;SDS011;64127;51.488;5.462;2024-03-02T09:43:59;2.90;;;1.37;;
75429;SDS011;64127;51.488;5.462;2024-03-02T09:46:31;2.00;;;1.20;;
75429;SDS011;64127;51.488;5.462;2024-03-02T09:49:04;1.93;;;1.20;;
75429;SDS011;64127;51.488;5.462;2024-03-02T09:51:39;2.27;;;1.10;;
75429;SDS011;64127;51.488;5.462;2024-03-02T09:54:21;1.93;;;1.10;;
75429;SDS011;64127;51.488;5.462;2024-03-02T09:56:54;3.40;;;1.33;;
75429;SDS011;64127;51.488;5.462;2024-03-02T09:59:26;3.97;;;1.60;;
75429;SDS011;64127;51.488;5.462;2024-03-02T10:01:59;3.73;;;1.20;;
75429;SDS011;64127;51.488;5.462;2024-03-02T10:04:34;2.77;;;1.13;;
75429;SDS011;64127;51.488;5.462;2024-03-02T10:09:48;3.90;;;1.43;;
75429;SDS011;64127;51.488;5.462;2024-03-02T10:12:21;1.90;;;1.20;;
75429;SDS011;64127;51.488;5.462;2024-03-02T10:15:02;3.33;;;1.10;;
75429;SDS011;64127;51.488;5.462;2024-03-02T10:17:36;2.07;;;1.03;;
75429;SDS011;64127;51.488;5.462;2024-03-02T10:20:21;2.70;;;1.30;;
75429;SDS011;64127;51.488;5.462;2024-03-02T10:23:13;1.80;;;1.00;;
75429;SDS011;64127;51.488;5.462;2024-03-02T10:25:47;2.80;;;1.13;;
75429;SDS011;64127;51.488;5.462;2024-03-02T10:28:28;3.37;;;1.17;;
75429;SDS011;64127;51.488;5.462;2024-03-02T10:31:01;2.13;;;1.20;;
75429;SDS011;64127;51.488;5.462;2024-03-02T10:33:33;2.97;;;1.37;;
75429;SDS011;64127;51.488;5.462;2024-03-02T10:36:06;1.30;;;0.93;;
75429;SDS011;64127;51.488;5.462;2024-03-02T10:38:40;4.40;;;1.50;;
75429;SDS011;64127;51.488;5.462;2024-03-02T10:41:16;2.03;;;1.00;;
75429;SDS011;64127;51.488;5.462;2024-03-02T10:43:53;3.13;;;1.27;;
75429;SDS011;64127;51.488;5.462;2024-03-02T10:46:31;2.33;;;1.30;;
75429;SDS011;64127;51.488;5.462;2024-03-02T10:49:05;2.43;;;1.37;;
75429;SDS011;64127;51.488;5.462;2024-03-02T10:51:39;2.70;;;0.90;;
75429;SDS011;64127;51.488;5.462;2024-03-02T10:54:11;1.97;;;1.13;;
75429;SDS011;64127;51.488;5.462;2024-03-02T10:56:44;2.40;;;1.30;;
75429;SDS011;64127;51.488;5.462;2024-03-02T10:59:28;2.23;;;1.17;;
75429;SDS011;64127;51.488;5.462;2024-03-02T11:02:08;3.47;;;1.20;;
75429;SDS011;64127;51.488;5.462;2024-03-02T11:04:44;2.27;;;1.07;;
75429;SDS011;64127;51.488;5.462;2024-03-02T11:07:20;4.13;;;1.40;;
75429;SDS011;64127;51.488;5.462;2024-03-02T11:09:56;2.40;;;1.17;;
75429;SDS011;64127;51.488;5.462;2024-03-02T11:13:14;3.00;;;1.60;;
75429;SDS011;64127;51.488;5.462;2024-03-02T11:15:43;1.60;;;1.07;;
75429;SDS011;64127;51.488;5.462;2024-03-02T11:18:16;3.20;;;1.43;;
75429;SDS011;64127;51.488;5.462;2024-03-02T11:20:48;2.53;;;1.23;;
75429;SDS011;64127;51.488;5.462;2024-03-02T11:23:21;2.90;;;1.40;;
75429;SDS011;64127;51.488;5.462;2024-03-02T11:26:19;2.33;;;1.30;;
75429;SDS011;64127;51.488;5.462;2024-03-02T11:28:54;2.23;;;1.03;;
75429;SDS011;64127;51.488;5.462;2024-03-02T11:31:56;2.27;;;1.20;;
75429;SDS011;64127;51.488;5.462;2024-03-02T11:34:36;2.03;;;1.20;;
75429;SDS011;64127;51.488;5.462;2024-03-02T11:37:10;2.33;;;1.00;;
75429;SDS011;64127;51.488;5.462;2024-03-02T11:39:45;1.43;;;0.97;;
75429;SDS011;64127;51.488;5.462;2024-03-02T11:42:18;3.00;;;1.33;;
75429;SDS011;64127;51.488;5.462;2024-03-02T11:44:50;3.47;;;1.30;;
75429;SDS011;64127;51.488;5.462;2024-03-02T11:47:22;4.07;;;1.47;;
75429;SDS011;64127;51.488;5.462;2024-03-02T11:49:54;1.87;;;1.30;;
75429;SDS011;64127;51.488;5.462;2024-03-02T11:52:27;3.07;;;1.33;;
75429;SDS011;64127;51.488;5.462;2024-03-02T11:55:01;2.30;;;1.40;;
75429;SDS011;64127;51.488;5.462;2024-03-02T11:57:36;3.30;;;1.20;;
75429;SDS011;64127;51.488;5.462;2024-03-02T12:00:16;1.83;;;1.03;;
75429;SDS011;64127;51.488;5.462;2024-03-02T12:03:05;1.50;;;1.10;;
75429;SDS011;64127;51.488;5.462;2024-03-02T12:05:39;2.90;;;1.17;;
75429;SDS011;64127;51.488;5.462;2024-03-02T12:08:13;3.43;;;1.53;;
75429;SDS011;64127;51.488;5.462;2024-03-02T12:10:58;2.83;;;1.17;;
75429;SDS011;64127;51.488;5.462;2024-03-02T12:13:35;3.57;;;1.27;;
75429;SDS011;64127;51.488;5.462;2024-03-02T12:16:07;4.00;;;1.23;;
75429;SDS011;64127;51.488;5.462;2024-03-02T12:18:39;2.53;;;1.27;;
75429;SDS011;64127;51.488;5.462;2024-03-02T12:21:15;1.97;;;1.40;;
75429;SDS011;64127;51.488;5.462;2024-03-02T12:23:47;2.33;;;1.27;;
75429;SDS011;64127;51.488;5.462;2024-03-02T12:26:21;3.20;;;1.40;;
75429;SDS011;64127;51.488;5.462;2024-03-02T12:28:54;3.43;;;1.40;;
75429;SDS011;64127;51.488;5.462;2024-03-02T12:31:26;3.33;;;1.50;;
75429;SDS011;64127;51.488;5.462;2024-03-02T12:33:58;2.00;;;1.30;;
75429;SDS011;64127;51.488;5.462;2024-03-02T12:36:36;2.73;;;1.37;;
75429;SDS011;64127;51.488;5.462;2024-03-02T12:39:10;3.27;;;1.30;;
75429;SDS011;64127;51.488;5.462;2024-03-02T12:41:42;2.83;;;1.47;;
75429;SDS011;64127;51.488;5.462;2024-03-02T12:44:14;2.40;;;1.33;;
75429;SDS011;64127;51.488;5.462;2024-03-02T12:46:46;2.37;;;1.30;;
75429;SDS011;64127;51.488;5.462;2024-03-02T12:49:21;2.87;;;1.50;;
75429;SDS011;64127;51.488;5.462;2024-03-02T12:51:53;2.47;;;1.40;;
75429;SDS011;64127;51.488;5.462;2024-03-02T12:54:26;3.87;;;1.63;;
75429;SDS011;64127;51.488;5.462;2024-03-02T12:56:58;3.17;;;1.23;;
75429;SDS011;64127;51.488;5.462;2024-03-02T12:59:31;2.53;;;1.30;;
75429;SDS011;64127;51.488;5.462;2024-03-02T13:02:04;1.70;;;1.37;;
75429;SDS011;64127;51.488;5.462;2024-03-02T13:04:37;2.53;;;1.47;;
75429;SDS011;64127;51.488;5.462;2024-03-02T13:07:09;3.17;;;1.40;;
75429;SDS011;64127;51.488;5.462;2024-03-02T13:09:45;2.63;;;1.47;;
75429;SDS011;64127;51.488;5.462;2024-03-02T13:12:17;3.87;;;1.47;;
75429;SDS011;64127;51.488;5.462;2024-03-02T13:14:53;3.50;;;1.60;;
75429;SDS011;64127;51.488;5.462;2024-03-02T13:17:26;3.77;;;1.53;;
75429;SDS011;64127;51.488;5.462;2024-03-02T13:20:04;2.20;;;1.30;;
75429;SDS011;64127;51.488;5.462;2024-03-02T13:22:42;3.00;;;1.67;;
75429;SDS011;64127;51.488;5.462;2024-03-02T13:25:14;2.33;;;1.30;;
75429;SDS011;64127;51.488;5.462;2024-03-02T13:27:46;3.90;;;1.73;;
75429;SDS011;64127;51.488;5.462;2024-03-02T13:30:18;1.97;;;1.20;;
75429;SDS011;64127;51.488;5.462;2024-03-02T13:32:50;2.63;;;1.30;;
75429;SDS011;64127;51.488;5.462;2024-03-02T13:35:22;2.33;;;1.30;;
75429;SDS011;64127;51.488;5.462;2024-03-02T13:37:55;1.90;;;1.20;;
75429;SDS011;64127;51.488;5.462;2024-03-02T13:40:27;3.07;;;1.50;;
75429;SDS011;64127;51.488;5.462;2024-03-02T13:43:00;1.53;;;1.27;;
75429;SDS011;64127;51.488;5.462;2024-03-02T13:45:34;2.50;;;1.10;;
75429;SDS011;64127;51.488;5.462;2024-03-02T13:48:08;2.20;;;1.20;;
75429;SDS011;64127;51.488;5.462;2024-03-02T13:50:40;2.37;;;1.30;;
75429;SDS011;64127;51.488;5.462;2024-03-02T13:53:12;2.63;;;1.37;;
75429;SDS011;64127;51.488;5.462;2024-03-02T13:55:45;1.57;;;1.20;;
75429;SDS011;64127;51.488;5.462;2024-03-02T13:58:17;2.53;;;1.43;;
75429;SDS011;64127;51.488;5.462;2024-03-02T14:00:49;2.63;;;1.33;;
75429;SDS011;64127;51.488;5.462;2024-03-02T14:03:22;3.40;;;1.40;;
75429;SDS011;64127;51.488;5.462;2024-03-02T14:05:56;1.80;;;1.30;;
75429;SDS011;64127;51.488;5.462;2024-03-02T14:08:29;2.13;;;1.30;;
75429;SDS011;64127;51.488;5.462;2024-03-02T14:11:01;2.67;;;1.30;;
75429;SDS011;64127;51.488;5.462;2024-03-02T14:13:34;1.87;;;1.20;;
75429;SDS011;64127;51.488;5.462;2024-03-02T14:16:06;2.07;;;1.30;;
75429;SDS011;64127;51.488;5.462;2024-03-02T14:18:38;2.80;;;1.23;;
75429;SDS011;64127;51.488;5.462;2024-03-02T14:21:10;1.43;;;1.00;;
75429;SDS011;64127;51.488;5.462;2024-03-02T14:23:45;1.57;;;1.20;;
75429;SDS011;64127;51.488;5.462;2024-03-02T14:26:17;2.23;;;1.20;;
75429;SDS011;64127;51.488;5.462;2024-03-02T14:28:50;2.67;;;1.40;;
75429;SDS011;64127;51.488;5.462;2024-03-02T14:31:24;2.43;;;1.27;;
75429;SDS011;64127;51.488;5.462;2024-03-02T14:33:57;1.77;;;1.10;;
75429;SDS011;64127;51.488;5.462;2024-03-02T14:36:29;1.87;;;1.40;;
75429;SDS011;64127;51.488;5.462;2024-03-02T14:39:02;2.13;;;1.20;;
75429;SDS011;64127;51.488;5.462;2024-03-02T14:41:35;2.23;;;1.40;;
75429;SDS011;64127;51.488;5.462;2024-03-02T14:44:08;2.17;;;1.10;;
75429;SDS011;64127;51.488;5.462;2024-03-02T14:46:40;1.20;;;1.10;;
75429;SDS011;64127;51.488;5.462;2024-03-02T14:49:15;2.20;;;1.20;;
75429;SDS011;64127;51.488;5.462;2024-03-02T14:51:47;2.93;;;1.40;;
75429;SDS011;64127;51.488;5.462;2024-03-02T14:54:21;1.10;;;1.00;;
75429;SDS011;64127;51.488;5.462;2024-03-02T14:56:53;2.83;;;1.30;;
75429;SDS011;64127;51.488;5.462;2024-03-02T14:59:26;1.97;;;1.27;;
75429;SDS011;64127;51.488;5.462;2024-03-02T15:01:59;1.23;;;1.00;;
75429;SDS011;64127;51.488;5.462;2024-03-02T15:04:31;1.07;;;0.90;;
75429;SDS011;64127;51.488;5.462;2024-03-02T15:07:03;1.23;;;1.10;;
75429;SDS011;64127;51.488;5.462;2024-03-02T15:09:36;2.53;;;1.30;;
75429;SDS011;64127;51.488;5.462;2024-03-02T15:12:08;1.50;;;1.20;;
75429;SDS011;64127;51.488;5.462;2024-03-02T15:14:43;3.07;;;0.97;;
75429;SDS011;64127;51.488;5.462;2024-03-02T15:17:19;1.30;;;1.10;;
75429;SDS011;64127;51.488;5.462;2024-03-02T15:19:51;1.37;;;1.00;;
75429;SDS011;64127;51.488;5.462;2024-03-02T15:22:23;2.37;;;1.10;;
75429;SDS011;64127;51.488;5.462;2024-03-02T15:24:56;1.20;;;1.00;;
75429;SDS011;64127;51.488;5.462;2024-03-02T15:27:28;1.20;;;1.10;;
75429;SDS011;64127;51.488;5.462;2024-03-02T15:30:01;2.37;;;1.30;;
75429;SDS011;64127;51.488;5.462;2024-03-02T15:32:34;2.37;;;1.13;;
75429;SDS011;64127;51.488;5.462;2024-03-02T15:35:08;1.63;;;1.20;;